sensor_id;sensor_type;location;lat;lon;timestamp;temperature;humidity
10411;DHT22;5251;52.112;8.606;2022-11-15T00:01:36;11.40;99.90
10411;DHT22;5251;52.112;8.606;2022-11-15T00:04:03;11.50;99.90
10411;DHT22;5251;52.112;8.606;2022-11-15T00:06:29;11.50;99.90
10411;DHT22;5251;52.112;8.606;2022-11-15T00:08:57;11.50;99.90
10411;DHT22;5251;52.112;8.606;2022-11-15T00:11:22;11.60;99.90
10411;DHT22;5251;52.112;8.606;2022-11-15T00:13:48;11.70;99.90
10411;DHT22;5251;52.112;8.606;2022-11-15T00:16:13;11.70;99.90
10411;DHT22;5251;52.112;8.606;2022-11-15T00:18:39;11.80;99.90
10411;DHT22;5251;52.112;8.606;2022-11-15T00:21:07;11.80;99.90
10411;DHT22;5251;52.112;8.606;2022-11-15T00:23:34;11.90;99.90
10411;DHT22;5251;52.112;8.606;2022-11-15T00:26:00;11.90;99.90
10411;DHT22;5251;52.112;8.606;2022-11-15T00:28:25;11.90;99.90
10411;DHT22;5251;52.112;8.606;2022-11-15T00:30:51;12.00;99.90
10411;DHT22;5251;52.112;8.606;2022-11-15T00:33:17;12.00;99.90
10411;DHT22;5251;52.112;8.606;2022-11-15T00:35:43;12.10;99.90
10411;DHT22;5251;52.112;8.606;2022-11-15T00:38:09;12.10;99.90
10411;DHT22;5251;52.112;8.606;2022-11-15T00:40:34;12.10;99.90
10411;DHT22;5251;52.112;8.606;2022-11-15T00:43:00;12.20;99.90
10411;DHT22;5251;52.112;8.606;2022-11-15T00:45:26;12.20;99.90
10411;DHT22;5251;52.112;8.606;2022-11-15T00:47:52;12.20;99.90
10411;DHT22;5251;52.112;8.606;2022-11-15T00:50:18;12.30;99.90
10411;DHT22;5251;52.112;8.606;2022-11-15T00:52:44;12.30;99.90
10411;DHT22;5251;52.112;8.606;2022-11-15T00:55:14;12.30;99.90
10411;DHT22;5251;52.112;8.606;2022-11-15T00:57:40;12.30;99.90
10411;DHT22;5251;52.112;8.606;2022-11-15T01:00:06;12.40;99.90
10411;DHT22;5251;52.112;8.606;2022-11-15T01:02:32;12.40;99.90
10411;DHT22;5251;52.112;8.606;2022-11-15T01:04:58;12.40;99.90
10411;DHT22;5251;52.112;8.606;2022-11-15T01:07:23;12.40;99.90
10411;DHT22;5251;52.112;8.606;2022-11-15T01:09:49;12.40;99.90
10411;DHT22;5251;52.112;8.606;2022-11-15T01:12:15;12.40;99.90
10411;DHT22;5251;52.112;8.606;2022-11-15T01:14:40;12.40;99.90
10411;DHT22;5251;52.112;8.606;2022-11-15T01:17:06;12.50;99.90
10411;DHT22;5251;52.112;8.606;2022-11-15T01:19:31;12.50;99.90
10411;DHT22;5251;52.112;8.606;2022-11-15T01:21:57;12.50;99.90
10411;DHT22;5251;52.112;8.606;2022-11-15T01:24:22;12.50;99.90
10411;DHT22;5251;52.112;8.606;2022-11-15T01:26:48;12.50;99.90
10411;DHT22;5251;52.112;8.606;2022-11-15T01:29:14;12.50;99.90
10411;DHT22;5251;52.112;8.606;2022-11-15T01:31:39;12.50;99.90
10411;DHT22;5251;52.112;8.606;2022-11-15T01:34:05;12.50;99.90
10411;DHT22;5251;52.112;8.606;2022-11-15T01:36:30;12.60;99.90
10411;DHT22;5251;52.112;8.606;2022-11-15T01:38:57;12.60;99.90
10411;DHT22;5251;52.112;8.606;2022-11-15T01:41:31;12.60;99.90
10411;DHT22;5251;52.112;8.606;2022-11-15T01:47:00;12.60;99.90
10411;DHT22;5251;52.112;8.606;2022-11-15T01:49:27;12.60;99.90
10411;DHT22;5251;52.112;8.606;2022-11-15T01:51:55;12.60;99.90
10411;DHT22;5251;52.112;8.606;2022-11-15T01:54:23;12.70;99.90
10411;DHT22;5251;52.112;8.606;2022-11-15T01:57:05;12.70;99.90
10411;DHT22;5251;52.112;8.606;2022-11-15T01:59:32;12.70;99.90
10411;DHT22;5251;52.112;8.606;2022-11-15T02:01:58;12.80;99.90
10411;DHT22;5251;52.112;8.606;2022-11-15T02:04:26;12.70;99.90
10411;DHT22;5251;52.112;8.606;2022-11-15T02:06:53;12.80;99.90
10411;DHT22;5251;52.112;8.606;2022-11-15T02:09:18;12.80;99.90
10411;DHT22;5251;52.112;8.606;2022-11-15T02:11:45;12.80;99.90
10411;DHT22;5251;52.112;8.606;2022-11-15T02:14:12;12.80;99.90
10411;DHT22;5251;52.112;8.606;2022-11-15T02:33:21;13.00;99.90
10411;DHT22;5251;52.112;8.606;2022-11-15T02:36:02;13.00;99.90
10411;DHT22;5251;52.112;8.606;2022-11-15T02:38:52;13.00;99.90
10411;DHT22;5251;52.112;8.606;2022-11-15T02:41:24;13.00;99.90
10411;DHT22;5251;52.112;8.606;2022-11-15T02:46:36;13.10;99.90
10411;DHT22;5251;52.112;8.606;2022-11-15T02:49:25;13.20;99.90
10411;DHT22;5251;52.112;8.606;2022-11-15T02:51:52;13.10;99.90
10411;DHT22;5251;52.112;8.606;2022-11-15T02:54:23;13.10;99.90
10411;DHT22;5251;52.112;8.606;2022-11-15T02:56:50;13.20;99.90
10411;DHT22;5251;52.112;8.606;2022-11-15T02:59:34;13.20;99.90
10411;DHT22;5251;52.112;8.606;2022-11-15T03:05:04;13.20;99.90
10411;DHT22;5251;52.112;8.606;2022-11-15T03:10:17;13.20;99.90
10411;DHT22;5251;52.112;8.606;2022-11-15T03:13:07;13.30;99.90
10411;DHT22;5251;52.112;8.606;2022-11-15T03:15:42;13.30;99.90
10411;DHT22;5251;52.112;8.606;2022-11-15T03:18:17;13.30;99.90
10411;DHT22;5251;52.112;8.606;2022-11-15T03:20:46;13.30;99.90
10411;DHT22;5251;52.112;8.606;2022-11-15T03:23:13;13.30;99.90
10411;DHT22;5251;52.112;8.606;2022-11-15T03:25:43;13.30;99.90
10411;DHT22;5251;52.112;8.606;2022-11-15T03:28:13;13.30;99.90
10411;DHT22;5251;52.112;8.606;2022-11-15T03:30:41;13.30;99.90
10411;DHT22;5251;52.112;8.606;2022-11-15T03:33:08;13.30;99.90
10411;DHT22;5251;52.112;8.606;2022-11-15T03:35:42;13.40;99.90
10411;DHT22;5251;52.112;8.606;2022-11-15T03:38:26;13.30;99.90
10411;DHT22;5251;52.112;8.606;2022-11-15T03:40:58;13.30;99.90
10411;DHT22;5251;52.112;8.606;2022-11-15T03:43:33;13.40;99.90
10411;DHT22;5251;52.112;8.606;2022-11-15T03:46:12;13.30;99.90
10411;DHT22;5251;52.112;8.606;2022-11-15T03:48:49;13.40;99.90
10411;DHT22;5251;52.112;8.606;2022-11-15T03:51:16;13.40;99.90
10411;DHT22;5251;52.112;8.606;2022-11-15T03:53:42;13.40;99.90
10411;DHT22;5251;52.112;8.606;2022-11-15T03:56:07;13.40;99.90
10411;DHT22;5251;52.112;8.606;2022-11-15T03:58:33;13.30;99.90
10411;DHT22;5251;52.112;8.606;2022-11-15T04:00:58;13.40;99.90
10411;DHT22;5251;52.112;8.606;2022-11-15T04:03:25;13.40;99.90
10411;DHT22;5251;52.112;8.606;2022-11-15T04:05:50;13.40;99.90
10411;DHT22;5251;52.112;8.606;2022-11-15T04:08:16;13.40;99.90
10411;DHT22;5251;52.112;8.606;2022-11-15T04:10:42;13.40;99.90
10411;DHT22;5251;52.112;8.606;2022-11-15T04:13:07;13.40;99.90
10411;DHT22;5251;52.112;8.606;2022-11-15T04:15:33;13.50;99.90
10411;DHT22;5251;52.112;8.606;2022-11-15T04:17:59;13.50;99.90
10411;DHT22;5251;52.112;8.606;2022-11-15T04:20:28;13.50;99.90
10411;DHT22;5251;52.112;8.606;2022-11-15T04:23:21;13.50;99.90
10411;DHT22;5251;52.112;8.606;2022-11-15T04:26:17;13.50;99.90
10411;DHT22;5251;52.112;8.606;2022-11-15T04:28:43;13.50;99.90
10411;DHT22;5251;52.112;8.606;2022-11-15T04:31:27;13.60;99.90
10411;DHT22;5251;52.112;8.606;2022-11-15T04:33:53;13.60;99.90
10411;DHT22;5251;52.112;8.606;2022-11-15T04:36:19;13.50;99.90
10411;DHT22;5251;52.112;8.606;2022-11-15T04:39:03;13.60;99.90
10411;DHT22;5251;52.112;8.606;2022-11-15T04:41:29;13.60;99.90
10411;DHT22;5251;52.112;8.606;2022-11-15T04:43:55;13.60;99.90
10411;DHT22;5251;52.112;8.606;2022-11-15T04:46:21;13.60;99.90
10411;DHT22;5251;52.112;8.606;2022-11-15T04:48:47;13.60;99.90
10411;DHT22;5251;52.112;8.606;2022-11-15T04:51:13;13.60;99.90
10411;DHT22;5251;52.112;8.606;2022-11-15T04:53:39;13.60;99.90
10411;DHT22;5251;52.112;8.606;2022-11-15T04:56:04;13.60;99.90
10411;DHT22;5251;52.112;8.606;2022-11-15T04:58:30;13.70;99.90
10411;DHT22;5251;52.112;8.606;2022-11-15T05:00:55;13.60;99.90
10411;DHT22;5251;52.112;8.606;2022-11-15T05:03:21;13.70;99.90
10411;DHT22;5251;52.112;8.606;2022-11-15T05:06:05;13.70;99.90
10411;DHT22;5251;52.112;8.606;2022-11-15T05:08:32;13.70;99.90
10411;DHT22;5251;52.112;8.606;2022-11-15T05:10:57;13.70;99.90
10411;DHT22;5251;52.112;8.606;2022-11-15T05:13:23;13.70;99.90
10411;DHT22;5251;52.112;8.606;2022-11-15T05:15:48;13.70;99.90
10411;DHT22;5251;52.112;8.606;2022-11-15T05:18:14;13.70;99.90
10411;DHT22;5251;52.112;8.606;2022-11-15T05:20:39;13.80;99.90
10411;DHT22;5251;52.112;8.606;2022-11-15T05:23:05;13.80;99.90
10411;DHT22;5251;52.112;8.606;2022-11-15T05:25:31;13.80;99.90
10411;DHT22;5251;52.112;8.606;2022-11-15T05:27:57;13.80;99.90
10411;DHT22;5251;52.112;8.606;2022-11-15T05:30:22;13.80;99.90
10411;DHT22;5251;52.112;8.606;2022-11-15T05:32:48;13.80;99.90
10411;DHT22;5251;52.112;8.606;2022-11-15T05:35:31;13.90;99.90
10411;DHT22;5251;52.112;8.606;2022-11-15T05:37:59;13.90;99.90
10411;DHT22;5251;52.112;8.606;2022-11-15T05:40:25;13.90;99.90
10411;DHT22;5251;52.112;8.606;2022-11-15T05:42:51;13.90;99.90
10411;DHT22;5251;52.112;8.606;2022-11-15T05:45:16;13.90;99.90
10411;DHT22;5251;52.112;8.606;2022-11-15T05:47:43;13.90;99.90
10411;DHT22;5251;52.112;8.606;2022-11-15T05:50:12;14.00;99.90
10411;DHT22;5251;52.112;8.606;2022-11-15T05:52:40;13.90;99.90
10411;DHT22;5251;52.112;8.606;2022-11-15T05:55:07;14.00;99.90
10411;DHT22;5251;52.112;8.606;2022-11-15T05:57:33;14.00;99.90
10411;DHT22;5251;52.112;8.606;2022-11-15T05:59:59;14.00;99.90
10411;DHT22;5251;52.112;8.606;2022-11-15T06:02:25;14.00;99.90
10411;DHT22;5251;52.112;8.606;2022-11-15T06:04:50;14.00;99.90
10411;DHT22;5251;52.112;8.606;2022-11-15T06:07:16;14.00;99.90
10411;DHT22;5251;52.112;8.606;2022-11-15T06:09:41;14.00;99.90
10411;DHT22;5251;52.112;8.606;2022-11-15T06:12:07;14.00;99.90
10411;DHT22;5251;52.112;8.606;2022-11-15T06:14:33;14.00;99.90
10411;DHT22;5251;52.112;8.606;2022-11-15T06:16:58;14.00;99.90
10411;DHT22;5251;52.112;8.606;2022-11-15T06:19:24;14.00;99.90
10411;DHT22;5251;52.112;8.606;2022-11-15T06:21:49;14.00;99.90
10411;DHT22;5251;52.112;8.606;2022-11-15T06:24:15;14.00;99.90
10411;DHT22;5251;52.112;8.606;2022-11-15T06:26:41;14.00;99.90
10411;DHT22;5251;52.112;8.606;2022-11-15T06:29:06;14.00;99.90
10411;DHT22;5251;52.112;8.606;2022-11-15T06:31:33;14.00;99.90
10411;DHT22;5251;52.112;8.606;2022-11-15T06:33:59;14.00;99.90
10411;DHT22;5251;52.112;8.606;2022-11-15T06:36:24;14.00;99.90
10411;DHT22;5251;52.112;8.606;2022-11-15T06:38:50;14.10;99.90
10411;DHT22;5251;52.112;8.606;2022-11-15T06:41:16;14.00;99.90
10411;DHT22;5251;52.112;8.606;2022-11-15T06:43:43;14.00;99.90
10411;DHT22;5251;52.112;8.606;2022-11-15T06:46:08;14.10;99.90
10411;DHT22;5251;52.112;8.606;2022-11-15T06:48:35;14.10;99.90
10411;DHT22;5251;52.112;8.606;2022-11-15T06:51:02;14.10;99.90
10411;DHT22;5251;52.112;8.606;2022-11-15T06:53:29;14.10;99.90
10411;DHT22;5251;52.112;8.606;2022-11-15T06:55:59;14.10;99.90
10411;DHT22;5251;52.112;8.606;2022-11-15T06:58:25;14.10;99.90
10411;DHT22;5251;52.112;8.606;2022-11-15T07:00:51;14.10;99.90
10411;DHT22;5251;52.112;8.606;2022-11-15T07:03:16;14.10;99.90
10411;DHT22;5251;52.112;8.606;2022-11-15T07:05:49;14.10;99.90
10411;DHT22;5251;52.112;8.606;2022-11-15T07:08:15;14.10;99.90
10411;DHT22;5251;52.112;8.606;2022-11-15T07:10:40;14.10;99.90
10411;DHT22;5251;52.112;8.606;2022-11-15T07:13:06;14.20;99.90
10411;DHT22;5251;52.112;8.606;2022-11-15T07:15:31;14.20;99.90
10411;DHT22;5251;52.112;8.606;2022-11-15T07:18:00;14.30;99.90
10411;DHT22;5251;52.112;8.606;2022-11-15T07:20:26;14.30;99.90
10411;DHT22;5251;52.112;8.606;2022-11-15T07:22:59;14.30;99.90
10411;DHT22;5251;52.112;8.606;2022-11-15T07:25:25;14.40;99.90
10411;DHT22;5251;52.112;8.606;2022-11-15T07:27:55;14.40;99.90
10411;DHT22;5251;52.112;8.606;2022-11-15T07:30:21;14.40;99.90
10411;DHT22;5251;52.112;8.606;2022-11-15T07:32:50;14.50;99.90
10411;DHT22;5251;52.112;8.606;2022-11-15T07:35:17;14.50;99.90
10411;DHT22;5251;52.112;8.606;2022-11-15T07:37:42;14.60;99.90
10411;DHT22;5251;52.112;8.606;2022-11-15T07:40:08;14.70;99.90
10411;DHT22;5251;52.112;8.606;2022-11-15T07:42:34;14.70;99.90
10411;DHT22;5251;52.112;8.606;2022-11-15T07:45:19;14.70;99.90
10411;DHT22;5251;52.112;8.606;2022-11-15T07:47:46;14.80;99.90
10411;DHT22;5251;52.112;8.606;2022-11-15T07:50:12;14.80;99.90
10411;DHT22;5251;52.112;8.606;2022-11-15T07:52:37;14.90;99.90
10411;DHT22;5251;52.112;8.606;2022-11-15T07:55:03;14.90;99.90
10411;DHT22;5251;52.112;8.606;2022-11-15T07:57:29;14.90;99.90
10411;DHT22;5251;52.112;8.606;2022-11-15T07:59:55;14.90;99.90
10411;DHT22;5251;52.112;8.606;2022-11-15T08:02:21;15.00;99.90
10411;DHT22;5251;52.112;8.606;2022-11-15T08:04:46;15.00;99.90
10411;DHT22;5251;52.112;8.606;2022-11-15T08:07:12;15.00;99.90
10411;DHT22;5251;52.112;8.606;2022-11-15T08:09:37;15.10;99.90
10411;DHT22;5251;52.112;8.606;2022-11-15T08:12:03;15.10;99.90
10411;DHT22;5251;52.112;8.606;2022-11-15T08:14:29;15.10;99.90
10411;DHT22;5251;52.112;8.606;2022-11-15T08:16:55;15.20;99.90
10411;DHT22;5251;52.112;8.606;2022-11-15T08:19:20;15.20;99.90
10411;DHT22;5251;52.112;8.606;2022-11-15T08:21:46;15.20;99.90
10411;DHT22;5251;52.112;8.606;2022-11-15T08:24:11;15.30;99.90
10411;DHT22;5251;52.112;8.606;2022-11-15T08:26:37;15.30;99.90
10411;DHT22;5251;52.112;8.606;2022-11-15T08:29:03;15.40;99.90
10411;DHT22;5251;52.112;8.606;2022-11-15T08:31:29;15.50;99.90
10411;DHT22;5251;52.112;8.606;2022-11-15T08:33:54;15.60;99.90
10411;DHT22;5251;52.112;8.606;2022-11-15T08:36:20;15.70;99.90
10411;DHT22;5251;52.112;8.606;2022-11-15T08:38:46;15.80;99.90
10411;DHT22;5251;52.112;8.606;2022-11-15T08:41:16;15.90;99.90
10411;DHT22;5251;52.112;8.606;2022-11-15T08:43:43;16.00;99.90
10411;DHT22;5251;52.112;8.606;2022-11-15T08:46:11;16.10;99.90
10411;DHT22;5251;52.112;8.606;2022-11-15T08:48:38;16.20;99.90
10411;DHT22;5251;52.112;8.606;2022-11-15T08:51:03;16.30;99.90
10411;DHT22;5251;52.112;8.606;2022-11-15T08:53:29;16.40;99.90
10411;DHT22;5251;52.112;8.606;2022-11-15T08:55:55;16.40;99.90
10411;DHT22;5251;52.112;8.606;2022-11-15T08:58:20;16.50;99.90
10411;DHT22;5251;52.112;8.606;2022-11-15T09:00:46;16.60;99.90
10411;DHT22;5251;52.112;8.606;2022-11-15T09:03:12;16.60;99.90
10411;DHT22;5251;52.112;8.606;2022-11-15T09:05:37;16.60;99.90
10411;DHT22;5251;52.112;8.606;2022-11-15T09:08:03;16.70;99.90
10411;DHT22;5251;52.112;8.606;2022-11-15T09:10:29;16.70;99.90
10411;DHT22;5251;52.112;8.606;2022-11-15T09:12:57;16.70;99.90
10411;DHT22;5251;52.112;8.606;2022-11-15T09:15:22;16.70;99.90
10411;DHT22;5251;52.112;8.606;2022-11-15T09:17:48;16.70;99.90
10411;DHT22;5251;52.112;8.606;2022-11-15T09:20:14;16.70;99.90
10411;DHT22;5251;52.112;8.606;2022-11-15T09:22:39;16.60;99.90
10411;DHT22;5251;52.112;8.606;2022-11-15T09:25:06;16.70;99.80
10411;DHT22;5251;52.112;8.606;2022-11-15T09:27:32;16.60;99.60
10411;DHT22;5251;52.112;8.606;2022-11-15T09:29:57;16.60;99.60
10411;DHT22;5251;52.112;8.606;2022-11-15T09:32:23;16.70;99.90
10411;DHT22;5251;52.112;8.606;2022-11-15T09:34:49;16.60;99.60
10411;DHT22;5251;52.112;8.606;2022-11-15T09:37:16;16.60;99.00
10411;DHT22;5251;52.112;8.606;2022-11-15T09:39:41;16.60;99.10
10411;DHT22;5251;52.112;8.606;2022-11-15T09:46:03;16.60;99.00
10411;DHT22;5251;52.112;8.606;2022-11-15T09:50:49;16.60;98.90
10411;DHT22;5251;52.112;8.606;2022-11-15T09:53:24;16.60;98.70
10411;DHT22;5251;52.112;8.606;2022-11-15T09:55:58;16.50;98.60
10411;DHT22;5251;52.112;8.606;2022-11-15T09:58:39;16.50;98.40
10411;DHT22;5251;52.112;8.606;2022-11-15T10:01:16;16.50;98.60
10411;DHT22;5251;52.112;8.606;2022-11-15T10:03:45;16.50;98.40
10411;DHT22;5251;52.112;8.606;2022-11-15T10:06:21;16.50;98.50
10411;DHT22;5251;52.112;8.606;2022-11-15T10:08:59;16.50;98.50
10411;DHT22;5251;52.112;8.606;2022-11-15T10:11:30;16.50;98.00
10411;DHT22;5251;52.112;8.606;2022-11-15T10:14:02;16.50;98.10
10411;DHT22;5251;52.112;8.606;2022-11-15T10:16:36;16.50;98.20
10411;DHT22;5251;52.112;8.606;2022-11-15T10:19:35;16.50;98.10
10411;DHT22;5251;52.112;8.606;2022-11-15T10:22:40;16.50;98.00
10411;DHT22;5251;52.112;8.606;2022-11-15T10:27:35;16.50;97.50
10411;DHT22;5251;52.112;8.606;2022-11-15T10:30:01;16.50;97.40
10411;DHT22;5251;52.112;8.606;2022-11-15T10:32:29;16.50;97.50
10411;DHT22;5251;52.112;8.606;2022-11-15T10:34:58;16.50;97.40
10411;DHT22;5251;52.112;8.606;2022-11-15T10:37:31;16.50;97.60
10411;DHT22;5251;52.112;8.606;2022-11-15T10:40:13;16.50;97.20
10411;DHT22;5251;52.112;8.606;2022-11-15T10:42:39;16.50;96.90
10411;DHT22;5251;52.112;8.606;2022-11-15T10:45:28;16.50;96.80
10411;DHT22;5251;52.112;8.606;2022-11-15T10:47:54;16.50;96.80
10411;DHT22;5251;52.112;8.606;2022-11-15T10:50:44;16.50;96.40
10411;DHT22;5251;52.112;8.606;2022-11-15T10:53:48;16.50;96.10
10411;DHT22;5251;52.112;8.606;2022-11-15T10:56:14;16.50;95.70
10411;DHT22;5251;52.112;8.606;2022-11-15T10:58:49;16.50;95.60
10411;DHT22;5251;52.112;8.606;2022-11-15T11:01:22;16.50;95.10
10411;DHT22;5251;52.112;8.606;2022-11-15T11:04:06;16.50;95.90
10411;DHT22;5251;52.112;8.606;2022-11-15T11:06:49;16.50;95.60
10411;DHT22;5251;52.112;8.606;2022-11-15T11:09:36;16.60;95.60
10411;DHT22;5251;52.112;8.606;2022-11-15T11:12:04;16.60;95.50
10411;DHT22;5251;52.112;8.606;2022-11-15T11:14:35;16.60;94.90
10411;DHT22;5251;52.112;8.606;2022-11-15T11:23:03;16.80;94.80
10411;DHT22;5251;52.112;8.606;2022-11-15T11:26:01;16.90;94.70
10411;DHT22;5251;52.112;8.606;2022-11-15T11:48:13;17.30;94.50
10411;DHT22;5251;52.112;8.606;2022-11-15T11:50:41;17.30;94.70
10411;DHT22;5251;52.112;8.606;2022-11-15T11:53:39;17.40;94.60
10411;DHT22;5251;52.112;8.606;2022-11-15T11:56:22;17.40;94.70
10411;DHT22;5251;52.112;8.606;2022-11-15T11:58:50;17.40;94.10
10411;DHT22;5251;52.112;8.606;2022-11-15T12:01:24;17.50;93.60
10411;DHT22;5251;52.112;8.606;2022-11-15T12:03:59;17.50;93.70
10411;DHT22;5251;52.112;8.606;2022-11-15T12:06:36;17.50;93.70
10411;DHT22;5251;52.112;8.606;2022-11-15T12:12:13;17.50;93.80
10411;DHT22;5251;52.112;8.606;2022-11-15T12:17:19;17.50;93.90
10411;DHT22;5251;52.112;8.606;2022-11-15T12:19:47;17.50;93.50
10411;DHT22;5251;52.112;8.606;2022-11-15T12:22:19;17.60;93.60
10411;DHT22;5251;52.112;8.606;2022-11-15T12:24:59;17.50;93.20
10411;DHT22;5251;52.112;8.606;2022-11-15T12:27:40;17.60;93.30
10411;DHT22;5251;52.112;8.606;2022-11-15T12:30:16;17.50;93.20
10411;DHT22;5251;52.112;8.606;2022-11-15T12:32:58;17.60;93.40
10411;DHT22;5251;52.112;8.606;2022-11-15T12:35:31;17.50;93.20
10411;DHT22;5251;52.112;8.606;2022-11-15T12:37:58;17.50;93.00
10411;DHT22;5251;52.112;8.606;2022-11-15T12:40:27;17.50;92.70
10411;DHT22;5251;52.112;8.606;2022-11-15T12:45:34;17.50;92.80
10411;DHT22;5251;52.112;8.606;2022-11-15T12:51:01;17.40;92.60
10411;DHT22;5251;52.112;8.606;2022-11-15T12:53:31;17.40;92.40
10411;DHT22;5251;52.112;8.606;2022-11-15T12:58:51;17.40;92.60
10411;DHT22;5251;52.112;8.606;2022-11-15T13:07:05;17.40;92.70
10411;DHT22;5251;52.112;8.606;2022-11-15T13:14:42;17.40;92.20
10411;DHT22;5251;52.112;8.606;2022-11-15T13:17:31;17.30;92.10
10411;DHT22;5251;52.112;8.606;2022-11-15T13:20:22;17.30;92.40
10411;DHT22;5251;52.112;8.606;2022-11-15T13:22:47;17.30;92.40
10411;DHT22;5251;52.112;8.606;2022-11-15T13:29:01;17.20;92.50
10411;DHT22;5251;52.112;8.606;2022-11-15T13:33:43;17.20;92.60
10411;DHT22;5251;52.112;8.606;2022-11-15T13:36:21;17.10;92.60
10411;DHT22;5251;52.112;8.606;2022-11-15T13:38:57;17.10;92.50
10411;DHT22;5251;52.112;8.606;2022-11-15T13:41:34;17.10;92.70
10411;DHT22;5251;52.112;8.606;2022-11-15T13:44:02;17.10;92.70
10411;DHT22;5251;52.112;8.606;2022-11-15T13:46:32;17.10;92.70
10411;DHT22;5251;52.112;8.606;2022-11-15T13:49:04;17.10;93.00
10411;DHT22;5251;52.112;8.606;2022-11-15T13:54:01;17.10;92.50
10411;DHT22;5251;52.112;8.606;2022-11-15T13:56:28;17.00;92.50
10411;DHT22;5251;52.112;8.606;2022-11-15T13:58:55;17.10;92.70
10411;DHT22;5251;52.112;8.606;2022-11-15T14:01:22;17.10;93.00
10411;DHT22;5251;52.112;8.606;2022-11-15T14:03:57;17.10;93.00
10411;DHT22;5251;52.112;8.606;2022-11-15T14:06:25;17.10;93.30
10411;DHT22;5251;52.112;8.606;2022-11-15T14:11:37;17.00;93.80
10411;DHT22;5251;52.112;8.606;2022-11-15T14:16:46;17.00;93.80
10411;DHT22;5251;52.112;8.606;2022-11-15T14:24:43;16.90;94.10
10411;DHT22;5251;52.112;8.606;2022-11-15T14:27:26;16.90;94.10
10411;DHT22;5251;52.112;8.606;2022-11-15T14:29:53;16.90;94.10
10411;DHT22;5251;52.112;8.606;2022-11-15T14:32:27;16.80;94.10
10411;DHT22;5251;52.112;8.606;2022-11-15T14:35:01;16.80;94.10
10411;DHT22;5251;52.112;8.606;2022-11-15T14:37:29;16.70;94.00
10411;DHT22;5251;52.112;8.606;2022-11-15T14:39:58;16.60;94.10
10411;DHT22;5251;52.112;8.606;2022-11-15T14:42:24;16.60;94.10
10411;DHT22;5251;52.112;8.606;2022-11-15T14:44:50;16.50;94.20
10411;DHT22;5251;52.112;8.606;2022-11-15T14:47:16;16.50;94.30
10411;DHT22;5251;52.112;8.606;2022-11-15T14:49:42;16.40;94.30
10411;DHT22;5251;52.112;8.606;2022-11-15T14:52:28;16.30;94.30
10411;DHT22;5251;52.112;8.606;2022-11-15T14:54:55;16.20;94.40
10411;DHT22;5251;52.112;8.606;2022-11-15T14:57:21;16.20;94.40
10411;DHT22;5251;52.112;8.606;2022-11-15T14:59:47;16.10;94.50
10411;DHT22;5251;52.112;8.606;2022-11-15T15:02:20;16.00;94.40
10411;DHT22;5251;52.112;8.606;2022-11-15T15:04:46;15.90;94.40
10411;DHT22;5251;52.112;8.606;2022-11-15T15:07:12;15.90;94.50
10411;DHT22;5251;52.112;8.606;2022-11-15T15:09:38;15.80;94.50
10411;DHT22;5251;52.112;8.606;2022-11-15T15:12:12;15.70;94.50
10411;DHT22;5251;52.112;8.606;2022-11-15T15:14:39;15.60;94.40
10411;DHT22;5251;52.112;8.606;2022-11-15T15:17:05;15.60;94.50
10411;DHT22;5251;52.112;8.606;2022-11-15T15:19:30;15.50;94.60
10411;DHT22;5251;52.112;8.606;2022-11-15T15:21:56;15.40;94.60
10411;DHT22;5251;52.112;8.606;2022-11-15T15:24:21;15.40;94.80
10411;DHT22;5251;52.112;8.606;2022-11-15T15:26:47;15.30;94.80
10411;DHT22;5251;52.112;8.606;2022-11-15T15:29:13;15.30;94.90
10411;DHT22;5251;52.112;8.606;2022-11-15T15:31:39;15.20;94.90
10411;DHT22;5251;52.112;8.606;2022-11-15T15:34:04;15.20;95.10
10411;DHT22;5251;52.112;8.606;2022-11-15T15:36:30;15.20;95.10
10411;DHT22;5251;52.112;8.606;2022-11-15T15:38:55;15.20;95.20
10411;DHT22;5251;52.112;8.606;2022-11-15T15:41:21;15.20;95.20
10411;DHT22;5251;52.112;8.606;2022-11-15T15:43:46;15.20;95.20
10411;DHT22;5251;52.112;8.606;2022-11-15T15:46:17;15.30;95.30
10411;DHT22;5251;52.112;8.606;2022-11-15T15:48:44;15.30;95.20
10411;DHT22;5251;52.112;8.606;2022-11-15T15:51:10;15.30;95.30
10411;DHT22;5251;52.112;8.606;2022-11-15T15:53:36;15.30;95.20
10411;DHT22;5251;52.112;8.606;2022-11-15T15:56:02;15.40;95.30
10411;DHT22;5251;52.112;8.606;2022-11-15T15:58:28;15.40;95.30
10411;DHT22;5251;52.112;8.606;2022-11-15T16:00:54;15.40;95.10
10411;DHT22;5251;52.112;8.606;2022-11-15T16:03:19;15.40;95.00
10411;DHT22;5251;52.112;8.606;2022-11-15T16:05:45;15.50;95.20
10411;DHT22;5251;52.112;8.606;2022-11-15T16:08:23;15.50;94.90
10411;DHT22;5251;52.112;8.606;2022-11-15T16:10:49;15.50;94.80
10411;DHT22;5251;52.112;8.606;2022-11-15T16:13:15;15.50;94.70
10411;DHT22;5251;52.112;8.606;2022-11-15T16:15:41;15.60;94.70
10411;DHT22;5251;52.112;8.606;2022-11-15T16:18:14;15.60;94.70
10411;DHT22;5251;52.112;8.606;2022-11-15T16:20:45;15.60;94.60
10411;DHT22;5251;52.112;8.606;2022-11-15T16:23:16;15.60;94.60
10411;DHT22;5251;52.112;8.606;2022-11-15T16:25:52;15.60;94.60
10411;DHT22;5251;52.112;8.606;2022-11-15T16:28:24;15.60;94.50
10411;DHT22;5251;52.112;8.606;2022-11-15T16:33:27;15.60;94.40
10411;DHT22;5251;52.112;8.606;2022-11-15T16:35:52;15.60;94.30
10411;DHT22;5251;52.112;8.606;2022-11-15T16:38:18;15.50;94.20
10411;DHT22;5251;52.112;8.606;2022-11-15T16:40:44;15.50;94.10
10411;DHT22;5251;52.112;8.606;2022-11-15T16:43:10;15.50;94.10
10411;DHT22;5251;52.112;8.606;2022-11-15T16:45:36;15.40;94.10
10411;DHT22;5251;52.112;8.606;2022-11-15T16:48:01;15.30;94.20
10411;DHT22;5251;52.112;8.606;2022-11-15T16:50:29;15.40;94.30
10411;DHT22;5251;52.112;8.606;2022-11-15T16:52:57;15.30;94.20
10411;DHT22;5251;52.112;8.606;2022-11-15T16:55:25;15.30;94.30
10411;DHT22;5251;52.112;8.606;2022-11-15T16:57:52;15.20;94.20
10411;DHT22;5251;52.112;8.606;2022-11-15T17:00:19;15.20;94.10
10411;DHT22;5251;52.112;8.606;2022-11-15T17:02:47;15.10;94.20
10411;DHT22;5251;52.112;8.606;2022-11-15T17:05:14;15.10;94.20
10411;DHT22;5251;52.112;8.606;2022-11-15T17:07:40;15.00;94.20
10411;DHT22;5251;52.112;8.606;2022-11-15T17:10:07;15.00;94.30
10411;DHT22;5251;52.112;8.606;2022-11-15T17:12:34;14.90;94.40
10411;DHT22;5251;52.112;8.606;2022-11-15T17:15:00;14.90;94.50
10411;DHT22;5251;52.112;8.606;2022-11-15T17:17:25;14.90;94.60
10411;DHT22;5251;52.112;8.606;2022-11-15T17:19:52;14.80;94.70
10411;DHT22;5251;52.112;8.606;2022-11-15T17:22:18;14.80;94.90
10411;DHT22;5251;52.112;8.606;2022-11-15T17:24:44;14.70;95.00
10411;DHT22;5251;52.112;8.606;2022-11-15T17:27:10;14.70;95.30
10411;DHT22;5251;52.112;8.606;2022-11-15T17:29:35;14.70;95.50
10411;DHT22;5251;52.112;8.606;2022-11-15T17:32:01;14.60;95.60
10411;DHT22;5251;52.112;8.606;2022-11-15T17:34:26;14.60;95.80
10411;DHT22;5251;52.112;8.606;2022-11-15T17:36:52;14.60;96.00
10411;DHT22;5251;52.112;8.606;2022-11-15T17:39:17;14.60;96.20
10411;DHT22;5251;52.112;8.606;2022-11-15T17:41:48;14.60;96.30
10411;DHT22;5251;52.112;8.606;2022-11-15T17:44:14;14.60;96.40
10411;DHT22;5251;52.112;8.606;2022-11-15T17:46:40;14.50;96.40